createdAt,value
2024-03-05T00:00:12.062Z,107.25
2024-03-05T00:02:44.520Z,109.03
2024-03-05T00:05:15.258Z,108.13
2024-03-05T00:07:44.211Z,106.05
2024-03-05T00:10:14.141Z,106.28
2024-03-05T00:15:10.857Z,104.95
2024-03-05T00:17:38.953Z,107.65
2024-03-05T00:20:14.415Z,108.07
2024-03-05T00:22:43.086Z,104.60
2024-03-05T00:25:12.366Z,102.45
2024-03-05T00:27:41.816Z,112.63
2024-03-05T00:30:13.225Z,104.70
2024-03-05T00:32:41.854Z,102.50
2024-03-05T00:35:11.328Z,102.07
2024-03-05T00:37:40.161Z,105.25
2024-03-05T00:40:10.630Z,107.13
2024-03-05T00:45:09.505Z,104.43
2024-03-05T00:47:38.066Z,105.13
2024-03-05T00:50:08.056Z,107.90
2024-03-05T00:52:36.213Z,110.88
2024-03-05T00:55:07.106Z,112.97
2024-03-05T00:57:35.791Z,110.63
2024-03-05T01:00:03.834Z,117.32
2024-03-05T01:02:33.227Z,123.35
2024-03-05T01:05:01.298Z,122.57
2024-03-05T01:07:29.265Z,132.45
2024-03-05T01:09:57.240Z,130.93
2024-03-05T01:12:25.153Z,131.95
2024-03-05T01:14:53.123Z,128.75
2024-03-05T01:17:21.048Z,120.20
2024-03-05T01:19:50.486Z,120.15
2024-03-05T01:22:18.570Z,134.02
2024-03-05T01:24:46.694Z,123.38
2024-03-05T01:27:15.563Z,114.97
2024-03-05T01:29:44.227Z,116.40
2024-03-05T01:32:14.137Z,129.20
2024-03-05T01:34:44.481Z,118.15
2024-03-05T01:37:14.397Z,117.63
2024-03-05T01:39:42.506Z,128.43
2024-03-05T01:42:10.522Z,118.25
2024-03-05T01:44:38.516Z,113.28
2024-03-05T01:47:07.056Z,115.82
2024-03-05T01:49:35.826Z,118.22
2024-03-05T01:52:04.652Z,115.43
2024-03-05T01:54:34.465Z,109.38
2024-03-05T01:57:05.391Z,106.57
2024-03-05T01:59:33.308Z,104.88
2024-03-05T02:02:01.455Z,116.05
2024-03-05T02:04:32.804Z,105.68
2024-03-05T02:07:04.157Z,111.75
2024-03-05T02:09:33.557Z,109.82
2024-03-05T02:12:04.245Z,115.38
2024-03-05T02:14:33.628Z,105.70
2024-03-05T02:17:02.720Z,110.90
2024-03-05T02:19:30.921Z,110.57
2024-03-05T02:22:03.833Z,109.70
2024-03-05T02:24:32.282Z,110.63
2024-03-05T02:27:02.876Z,112.10
2024-03-05T02:29:32.270Z,118.90
2024-03-05T02:32:00.572Z,112.50
2024-03-05T02:34:28.739Z,125.80
2024-03-05T02:36:57.387Z,127.18
2024-03-05T02:39:28.387Z,134.30
2024-03-05T02:41:56.501Z,135.50
2024-03-05T02:44:24.494Z,150.38
2024-03-05T02:46:52.888Z,135.85
2024-03-05T02:49:21.102Z,136.70
2024-03-05T02:51:49.612Z,142.55
2024-03-05T02:54:17.856Z,138.15
2024-03-05T02:56:47.218Z,147.20
2024-03-05T02:59:16.055Z,143.75
2024-03-05T03:01:48.673Z,142.93
2024-03-05T03:04:17.226Z,146.75
2024-03-05T03:06:45.317Z,155.77
2024-03-05T03:09:13.291Z,149.43
2024-03-05T03:11:42.475Z,143.30
2024-03-05T03:14:12.979Z,152.95
2024-03-05T03:16:44.881Z,152.15
2024-03-05T03:19:13.335Z,150.32
2024-03-05T03:21:42.231Z,140.88
2024-03-05T03:24:12.715Z,140.23
2024-03-05T03:26:40.590Z,133.18
2024-03-05T03:29:12.447Z,142.13
2024-03-05T03:31:47.016Z,145.35
2024-03-05T03:34:17.359Z,150.15
2024-03-05T03:36:45.585Z,142.88
2024-03-05T03:39:19.017Z,145.32
2024-03-05T03:41:49.886Z,140.18
2024-03-05T03:44:18.599Z,140.95
2024-03-05T03:46:48.015Z,140.75
2024-03-05T03:49:17.315Z,140.33
2024-03-05T03:51:45.382Z,133.47
2024-03-05T03:54:13.314Z,138.65
2024-03-05T03:56:41.196Z,148.75
2024-03-05T03:59:09.123Z,132.70
2024-03-05T04:01:37.875Z,137.80
2024-03-05T04:04:07.323Z,133.82
2024-03-05T04:06:35.706Z,141.87
2024-03-05T04:09:04.402Z,146.90
2024-03-05T04:11:32.795Z,144.38
2024-03-05T04:14:03.955Z,133.10
2024-03-05T04:16:32.311Z,144.85
2024-03-05T04:19:00.786Z,136.40
2024-03-05T04:21:30.109Z,140.60
2024-03-05T04:23:57.979Z,129.77
2024-03-05T04:26:27.932Z,146.73
2024-03-05T04:28:56.450Z,149.35
2024-03-05T04:31:26.855Z,139.82
2024-03-05T04:34:00.236Z,129.75
2024-03-05T04:36:28.240Z,173.52
2024-03-05T04:38:57.732Z,175.38
2024-03-05T04:41:25.826Z,140.38
2024-03-05T04:43:53.799Z,134.68
2024-03-05T04:46:21.707Z,148.82
2024-03-05T04:48:49.838Z,137.05
2024-03-05T04:51:17.832Z,138.18
2024-03-05T04:53:45.829Z,148.43
2024-03-05T04:56:15.117Z,140.68
2024-03-05T04:58:43.026Z,142.60
2024-03-05T05:01:14.066Z,137.52
2024-03-05T05:03:44.094Z,136.43
2024-03-05T05:06:12.330Z,134.48
2024-03-05T05:08:40.335Z,127.28
2024-03-05T05:11:09.193Z,137.77
2024-03-05T05:13:38.617Z,133.32
2024-03-05T05:16:09.627Z,134.30
2024-03-05T05:18:37.638Z,132.02
2024-03-05T05:21:08.648Z,125.05
2024-03-05T05:23:36.630Z,128.75
2024-03-05T05:26:04.948Z,129.43
2024-03-05T05:28:33.002Z,124.20
2024-03-05T05:31:04.873Z,130.45
2024-03-05T05:33:33.311Z,133.00
2024-03-05T05:36:01.126Z,120.53
2024-03-05T05:38:29.091Z,119.63
2024-03-05T05:40:57.055Z,103.68
2024-03-05T05:43:25.114Z,105.65
2024-03-05T05:45:53.143Z,107.38
2024-03-05T05:48:29.389Z,104.07
2024-03-05T05:50:59.814Z,105.00
2024-03-05T05:53:28.065Z,102.80
2024-03-05T05:55:56.080Z,106.30
2024-03-05T05:58:27.345Z,105.88
2024-03-05T06:00:55.452Z,103.82
2024-03-05T06:03:25.483Z,105.65
2024-03-05T06:05:53.442Z,105.43
2024-03-05T06:08:21.839Z,107.20
2024-03-05T06:10:50.193Z,107.05
2024-03-05T06:13:18.209Z,109.68
2024-03-05T06:15:47.584Z,118.85
2024-03-05T06:18:15.529Z,114.07
2024-03-05T06:20:44.935Z,119.00
2024-03-05T06:23:13.644Z,118.63
2024-03-05T06:25:41.678Z,117.43
2024-03-05T06:28:10.586Z,110.70
2024-03-05T06:30:39.264Z,122.88
2024-03-05T06:33:10.033Z,114.40
2024-03-05T06:35:38.263Z,103.63
2024-03-05T06:38:09.553Z,108.88
2024-03-05T06:40:38.569Z,110.18
2024-03-05T06:43:14.120Z,104.13
2024-03-05T06:45:43.966Z,108.03
2024-03-05T06:48:17.573Z,113.57
2024-03-05T06:50:53.277Z,109.22
2024-03-05T06:53:39.834Z,109.93
2024-03-05T06:56:25.695Z,109.40
2024-03-05T06:58:54.404Z,105.47
2024-03-05T07:01:23.599Z,118.88
2024-03-05T07:03:51.691Z,123.47
2024-03-05T07:06:20.448Z,115.20
2024-03-05T07:08:50.578Z,121.82
2024-03-05T07:11:18.904Z,119.35
2024-03-05T07:13:49.620Z,115.25
2024-03-05T07:16:19.472Z,110.07
2024-03-05T07:18:50.296Z,122.03
2024-03-05T07:21:21.054Z,123.22
2024-03-05T07:23:51.732Z,118.35
2024-03-05T07:28:48.482Z,118.50
2024-03-05T07:31:18.322Z,120.05
2024-03-05T07:33:49.183Z,113.18
2024-03-05T07:36:19.866Z,120.60
2024-03-05T07:38:47.937Z,123.80
2024-03-05T07:41:26.345Z,128.55
2024-03-05T07:44:01.371Z,130.13
2024-03-05T07:46:29.831Z,134.43
2024-03-05T07:48:57.765Z,124.63
2024-03-05T07:51:29.113Z,124.82
2024-03-05T07:54:01.327Z,122.95
2024-03-05T07:56:30.781Z,120.38
2024-03-05T07:58:59.038Z,124.93
2024-03-05T08:01:27.192Z,130.18
2024-03-05T08:03:55.146Z,117.75
2024-03-05T08:06:23.071Z,109.65
2024-03-05T08:08:51.010Z,112.88
2024-03-05T08:11:19.108Z,116.68
2024-03-05T08:13:49.192Z,130.18
2024-03-05T08:16:17.249Z,126.43
2024-03-05T08:18:45.674Z,114.75
2024-03-05T08:21:14.600Z,110.80
2024-03-05T08:23:42.461Z,113.20
2024-03-05T08:26:10.530Z,107.97
2024-03-05T08:28:38.675Z,111.05
2024-03-05T08:31:09.359Z,99.53
2024-03-05T08:33:37.415Z,100.97
2024-03-05T08:36:05.966Z,95.72
2024-03-05T08:38:33.949Z,97.03
2024-03-05T08:41:02.907Z,90.72
2024-03-05T08:43:31.656Z,93.85
2024-03-05T08:45:59.622Z,95.65
2024-03-05T08:48:29.765Z,93.30
2024-03-05T08:50:59.698Z,85.68
2024-03-05T08:53:28.225Z,85.18
2024-03-05T08:55:56.162Z,82.45
2024-03-05T08:58:24.721Z,83.22
2024-03-05T09:00:52.928Z,92.43
2024-03-05T09:03:20.988Z,84.93
2024-03-05T09:05:50.311Z,87.90
2024-03-05T09:08:18.230Z,76.63
2024-03-05T09:10:48.038Z,80.30
2024-03-05T09:13:16.130Z,80.75
2024-03-05T09:15:44.787Z,77.97
2024-03-05T09:18:15.624Z,76.85
2024-03-05T09:20:44.697Z,81.90
2024-03-05T09:23:14.192Z,77.45
2024-03-05T09:25:43.626Z,83.00
2024-03-05T09:28:12.556Z,82.93
2024-03-05T09:30:41.166Z,79.15
2024-03-05T09:33:11.319Z,83.55
2024-03-05T09:35:39.895Z,79.38
2024-03-05T09:38:08.545Z,58.72
2024-03-05T09:40:40.057Z,48.10
2024-03-05T09:43:09.384Z,41.55
2024-03-05T09:45:39.404Z,43.60
2024-03-05T09:48:09.985Z,34.15
2024-03-05T09:50:38.916Z,29.77
2024-03-05T09:53:07.348Z,35.13
2024-03-05T09:55:35.380Z,30.25
2024-03-05T09:58:10.428Z,31.02
2024-03-05T10:00:39.669Z,27.27
2024-03-05T10:03:09.793Z,26.40
2024-03-05T10:08:07.483Z,168.57
2024-03-05T10:10:35.819Z,68.97
2024-03-05T10:13:05.449Z,23.08
2024-03-05T10:15:35.700Z,22.67
2024-03-05T10:18:04.156Z,20.95
2024-03-05T10:20:35.136Z,18.13
2024-03-05T10:23:05.312Z,19.17
2024-03-05T10:25:36.060Z,18.50
2024-03-05T10:28:09.831Z,17.92
2024-03-05T10:30:39.199Z,16.65
2024-03-05T10:33:09.081Z,16.40
2024-03-05T10:35:39.148Z,18.80
2024-03-05T10:40:39.527Z,14.40
2024-03-05T10:43:10.586Z,15.65
2024-03-05T10:45:41.842Z,13.20
2024-03-05T10:48:11.989Z,13.73
2024-03-05T10:50:42.372Z,14.15
2024-03-05T10:53:11.184Z,14.50
2024-03-05T10:55:40.546Z,14.15
2024-03-05T10:58:28.097Z,15.32
2024-03-05T11:00:58.835Z,15.18
2024-03-05T11:03:40.228Z,15.50
2024-03-05T11:06:09.794Z,15.60
2024-03-05T11:08:38.924Z,36.90
2024-03-05T11:11:11.089Z,19.75
2024-03-05T11:13:42.345Z,19.40
2024-03-05T11:16:11.143Z,20.52
2024-03-05T11:18:40.115Z,19.70
2024-03-05T11:21:10.469Z,18.95
2024-03-05T11:23:40.221Z,22.95
2024-03-05T11:26:09.367Z,23.95
2024-03-05T11:28:40.354Z,18.03
2024-03-05T11:31:14.774Z,19.80
2024-03-05T11:33:44.191Z,16.33
2024-03-05T11:36:21.758Z,15.32
2024-03-05T11:39:05.658Z,15.30
2024-03-05T11:41:34.756Z,14.23
2024-03-05T11:44:04.928Z,14.63
2024-03-05T11:49:11.657Z,12.35
2024-03-05T11:51:41.426Z,13.23
2024-03-05T11:54:10.695Z,14.10
2024-03-05T11:56:38.750Z,12.70
2024-03-05T11:59:09.644Z,13.07
2024-03-05T12:01:38.069Z,12.43
2024-03-05T12:04:08.991Z,13.27
2024-03-05T12:06:37.429Z,13.30
2024-03-05T12:09:19.365Z,14.65
2024-03-05T12:12:04.194Z,13.90
2024-03-05T12:14:35.963Z,14.20
2024-03-05T12:17:08.325Z,15.98
2024-03-05T12:19:38.778Z,14.68
2024-03-05T12:22:08.224Z,14.13
2024-03-05T12:24:37.710Z,15.27
2024-03-05T12:27:07.068Z,16.23
2024-03-05T12:29:38.534Z,15.30
2024-03-05T12:32:08.730Z,15.68
2024-03-05T12:34:37.555Z,15.98
2024-03-05T12:37:09.302Z,15.80
2024-03-05T12:39:38.041Z,15.73
2024-03-05T12:42:08.011Z,15.60
2024-03-05T12:44:37.362Z,17.70
2024-03-05T12:47:09.577Z,19.50
2024-03-05T12:49:42.009Z,20.63
2024-03-05T12:52:10.240Z,19.45
2024-03-05T12:54:38.282Z,19.52
2024-03-05T12:57:07.225Z,18.45
2024-03-05T12:59:35.107Z,19.10
2024-03-05T13:02:04.634Z,17.52
2024-03-05T13:04:34.168Z,19.20
2024-03-05T13:07:02.124Z,21.67
2024-03-05T13:09:30.002Z,21.55
2024-03-05T13:11:58.064Z,22.80
2024-03-05T13:14:27.204Z,19.67
2024-03-05T13:16:56.046Z,19.85
2024-03-05T13:19:25.836Z,19.70
2024-03-05T13:21:54.304Z,17.45
2024-03-05T13:24:22.778Z,22.15
2024-03-05T13:26:50.773Z,24.02
2024-03-05T13:29:20.310Z,23.80
2024-03-05T13:31:48.576Z,22.60
2024-03-05T13:34:16.838Z,21.48
2024-03-05T13:36:47.866Z,20.50
2024-03-05T13:39:19.531Z,20.02
2024-03-05T13:41:49.403Z,20.23
2024-03-05T13:44:17.489Z,23.05
2024-03-05T13:46:45.923Z,24.02
2024-03-05T13:49:18.434Z,31.50
2024-03-05T13:51:47.935Z,25.77
2024-03-05T13:54:14.972Z,26.88
2024-03-05T13:56:44.547Z,26.30
2024-03-05T13:59:13.024Z,27.77
2024-03-05T14:01:42.547Z,26.30
2024-03-05T14:04:11.665Z,26.67
2024-03-05T14:06:40.417Z,24.98
2024-03-05T14:09:12.094Z,24.80
2024-03-05T14:11:42.130Z,26.02
2024-03-05T14:16:45.404Z,29.25
2024-03-05T14:19:13.327Z,32.67
2024-03-05T14:21:41.326Z,33.08
2024-03-05T14:24:13.747Z,27.77
2024-03-05T14:26:43.191Z,30.38
2024-03-05T14:29:11.698Z,32.53
2024-03-05T14:31:39.614Z,43.63
2024-03-05T14:34:07.673Z,40.05
2024-03-05T14:36:38.081Z,38.65
2024-03-05T14:39:10.727Z,37.60
2024-03-05T14:41:40.136Z,38.83
2024-03-05T14:44:11.805Z,35.53
2024-03-05T14:46:40.765Z,35.90
2024-03-05T14:49:10.026Z,38.47
2024-03-05T14:51:38.068Z,36.28
2024-03-05T14:54:08.213Z,34.03
2024-03-05T14:59:07.570Z,52.47
2024-03-05T15:01:36.528Z,42.88
2024-03-05T15:04:04.673Z,40.13
2024-03-05T15:06:32.731Z,38.67
2024-03-05T15:09:00.660Z,42.00
2024-03-05T15:11:28.785Z,39.42
2024-03-05T15:13:57.884Z,42.13
2024-03-05T15:16:27.915Z,40.90
2024-03-05T15:18:58.803Z,39.67
2024-03-05T15:21:26.753Z,40.25
2024-03-05T15:23:54.691Z,40.50
2024-03-05T15:26:22.580Z,41.40
2024-03-05T15:28:51.248Z,41.50
2024-03-05T15:31:19.142Z,40.45
2024-03-05T15:33:48.437Z,40.10
2024-03-05T15:36:16.398Z,41.50
2024-03-05T15:38:44.470Z,45.58
2024-03-05T15:41:12.607Z,40.58
2024-03-05T15:43:40.741Z,42.72
2024-03-05T15:46:08.717Z,43.45
2024-03-05T15:48:36.585Z,42.05
2024-03-05T15:51:06.229Z,42.67
2024-03-05T15:53:34.104Z,41.95
2024-03-05T15:56:13.503Z,38.53
2024-03-05T15:59:00.004Z,40.95
2024-03-05T16:01:28.294Z,42.05
2024-03-05T16:04:15.144Z,43.58
2024-03-05T16:06:53.289Z,40.60
2024-03-05T16:09:21.431Z,44.08
2024-03-05T16:11:50.905Z,44.00
2024-03-05T16:14:18.842Z,42.72
2024-03-05T16:16:46.829Z,43.20
2024-03-05T16:19:14.750Z,45.75
2024-03-05T16:21:42.694Z,43.97
2024-03-05T16:24:12.884Z,49.30
2024-03-05T16:29:08.843Z,42.60
2024-03-05T16:31:37.136Z,41.50
2024-03-05T16:34:07.068Z,42.92
2024-03-05T16:36:35.143Z,43.65
2024-03-05T16:39:04.398Z,43.22
2024-03-05T16:41:35.338Z,42.90
2024-03-05T16:44:04.663Z,41.97
2024-03-05T16:46:34.917Z,41.08
2024-03-05T16:49:04.790Z,40.80
2024-03-05T16:51:32.772Z,63.10
2024-03-05T16:54:00.675Z,47.58
2024-03-05T16:56:28.633Z,43.63
2024-03-05T16:58:57.927Z,52.10
2024-03-05T17:01:26.018Z,52.07
2024-03-05T17:03:57.034Z,42.63
2024-03-05T17:06:25.804Z,51.83
2024-03-05T17:08:53.779Z,77.97
2024-03-05T17:11:24.204Z,43.80
2024-03-05T17:13:52.565Z,42.58
2024-03-05T17:16:23.127Z,42.67
2024-03-05T17:18:52.748Z,42.95
2024-03-05T17:21:20.670Z,73.32
2024-03-05T17:23:48.921Z,124.00
2024-03-05T17:26:17.459Z,67.55
2024-03-05T17:28:46.096Z,45.47
2024-03-05T17:31:14.130Z,45.97
2024-03-05T17:33:43.564Z,44.25
2024-03-05T17:36:12.129Z,45.25
2024-03-05T17:38:40.168Z,74.13
2024-03-05T17:41:09.181Z,51.53
2024-03-05T17:43:37.939Z,86.65
2024-03-05T17:46:07.433Z,57.88
2024-03-05T17:48:35.539Z,58.65
2024-03-05T17:51:05.311Z,54.75
2024-03-05T17:53:33.279Z,52.33
2024-03-05T17:56:02.904Z,50.17
2024-03-05T17:58:31.014Z,46.00
2024-03-05T18:00:59.266Z,45.05
2024-03-05T18:03:35.909Z,44.75
2024-03-05T18:06:06.126Z,56.35
2024-03-05T18:08:34.000Z,48.47
2024-03-05T18:11:02.457Z,46.00
2024-03-05T18:13:30.513Z,48.97
2024-03-05T18:15:58.533Z,42.42
2024-03-05T18:18:26.458Z,55.83
2024-03-05T18:20:55.124Z,48.85
2024-03-05T18:23:24.480Z,41.75
2024-03-05T18:25:52.454Z,46.47
2024-03-05T18:28:23.799Z,45.70
2024-03-05T18:30:51.859Z,49.72
2024-03-05T18:33:20.132Z,45.83
2024-03-05T18:35:48.416Z,42.42
2024-03-05T18:38:24.899Z,45.85
2024-03-05T18:41:01.291Z,47.97
2024-03-05T18:43:31.302Z,493.33
2024-03-05T18:46:01.860Z,87.93
2024-03-05T18:48:31.298Z,54.63
2024-03-05T18:50:59.507Z,47.83
2024-03-05T18:53:36.411Z,46.70
2024-03-05T18:56:13.853Z,45.40
2024-03-05T18:58:44.253Z,41.92
2024-03-05T19:01:15.366Z,44.35
2024-03-05T19:03:45.029Z,47.78
2024-03-05T19:06:13.121Z,43.97
2024-03-05T19:08:41.133Z,43.72
2024-03-05T19:11:10.521Z,43.33
2024-03-05T19:13:41.845Z,49.55
2024-03-05T19:16:10.977Z,45.85
2024-03-05T19:18:39.092Z,43.88
2024-03-05T19:21:07.812Z,43.90
2024-03-05T19:23:35.917Z,49.22
2024-03-05T19:26:04.582Z,45.33
2024-03-05T19:28:35.585Z,47.35
2024-03-05T19:31:07.148Z,44.08
2024-03-05T19:33:35.082Z,44.42
2024-03-05T19:36:04.735Z,43.15
2024-03-05T19:38:33.068Z,48.85
2024-03-05T19:41:01.274Z,46.10
2024-03-05T19:43:30.001Z,53.03
2024-03-05T19:45:58.641Z,50.47
2024-03-05T19:48:28.984Z,54.40
2024-03-05T19:50:57.051Z,49.05
2024-03-05T19:53:25.086Z,46.30
2024-03-05T19:55:54.049Z,41.95
2024-03-05T19:58:22.113Z,46.83
2024-03-05T20:00:50.315Z,46.58
2024-03-05T20:03:18.419Z,48.10
2024-03-05T20:05:50.610Z,46.10
2024-03-05T20:08:19.823Z,46.97
2024-03-05T20:10:48.058Z,47.65
2024-03-05T20:13:17.021Z,47.53
2024-03-05T20:15:45.887Z,43.13
2024-03-05T20:18:14.292Z,45.53
2024-03-05T20:20:42.908Z,46.88
2024-03-05T20:23:12.816Z,44.70
2024-03-05T20:25:42.829Z,46.17
2024-03-05T20:28:13.962Z,42.58
2024-03-05T20:30:45.835Z,46.95
2024-03-05T20:33:14.018Z,42.38
2024-03-05T20:35:43.503Z,44.53
2024-03-05T20:38:14.547Z,43.42
2024-03-05T20:40:42.870Z,43.40
2024-03-05T20:43:11.875Z,44.80
2024-03-05T20:45:42.071Z,46.35
2024-03-05T20:48:10.209Z,43.10
2024-03-05T20:50:38.205Z,41.17
2024-03-05T20:53:06.952Z,42.25
2024-03-05T20:55:36.337Z,48.97
2024-03-05T20:58:05.325Z,47.97
2024-03-05T21:00:33.497Z,54.28
2024-03-05T21:03:01.713Z,43.20
2024-03-05T21:05:31.350Z,43.97
2024-03-05T21:07:59.388Z,43.95
2024-03-05T21:10:27.543Z,39.85
2024-03-05T21:12:56.975Z,42.75
2024-03-05T21:15:26.194Z,41.00
2024-03-05T21:17:54.628Z,43.77
2024-03-05T21:20:22.759Z,45.08
2024-03-05T21:22:50.976Z,44.33
2024-03-05T21:25:19.257Z,42.30
2024-03-05T21:27:47.264Z,42.33
2024-03-05T21:30:17.510Z,40.58
2024-03-05T21:35:14.814Z,42.45
2024-03-05T21:37:42.874Z,42.10
2024-03-05T21:40:14.059Z,47.08
2024-03-05T21:42:44.671Z,43.53
2024-03-05T21:45:15.027Z,54.38
2024-03-05T21:50:13.797Z,46.75
2024-03-05T21:52:46.065Z,41.92
2024-03-05T21:55:14.746Z,46.05
2024-03-05T21:57:45.391Z,48.45
2024-03-05T22:00:16.344Z,42.30
2024-03-05T22:02:45.788Z,44.80
2024-03-05T22:05:14.180Z,43.65
2024-03-05T22:07:42.377Z,48.45
2024-03-05T22:10:10.986Z,46.72
2024-03-05T22:12:39.185Z,45.38
2024-03-05T22:15:08.156Z,43.78
2024-03-05T22:17:36.434Z,45.03
2024-03-05T22:20:07.680Z,44.97
2024-03-05T22:22:35.904Z,44.83
2024-03-05T22:25:07.507Z,47.10
2024-03-05T22:27:36.030Z,45.72
2024-03-05T22:30:05.251Z,48.83
2024-03-05T22:32:33.256Z,44.35
2024-03-05T22:35:01.282Z,47.45
2024-03-05T22:37:31.212Z,48.22
2024-03-05T22:39:59.527Z,45.58
2024-03-05T22:42:27.500Z,45.10
2024-03-05T22:44:55.417Z,45.70
2024-03-05T22:47:24.094Z,48.65
2024-03-05T22:49:51.971Z,46.05
2024-03-05T22:52:21.025Z,43.55
2024-03-05T22:54:50.343Z,48.08
2024-03-05T22:57:18.414Z,46.10
2024-03-05T22:59:46.371Z,48.72
2024-03-05T23:02:16.785Z,46.38
2024-03-05T23:04:44.813Z,49.47
2024-03-05T23:07:14.317Z,49.90
2024-03-05T23:09:42.661Z,47.55
2024-03-05T23:12:16.392Z,49.90
2024-03-05T23:14:44.442Z,46.60
2024-03-05T23:17:17.115Z,48.55
2024-03-05T23:19:45.415Z,47.33
2024-03-05T23:22:13.664Z,52.92
2024-03-05T23:24:41.638Z,50.92
2024-03-05T23:27:09.813Z,54.78
2024-03-05T23:29:41.478Z,55.08
2024-03-05T23:32:09.576Z,51.13
2024-03-05T23:34:37.568Z,52.20
2024-03-05T23:37:06.614Z,52.75
2024-03-05T23:39:34.597Z,56.50
2024-03-05T23:42:02.632Z,54.67
2024-03-05T23:44:30.693Z,55.75
2024-03-05T23:47:00.182Z,56.00
2024-03-05T23:49:28.140Z,51.38
2024-03-05T23:51:56.159Z,52.40
2024-03-05T23:54:24.040Z,57.55
2024-03-05T23:56:52.637Z,56.47
2024-03-05T23:59:21.001Z,52.95
